createdAt,value
2022-10-22T00:00:55.792Z,26.13
2022-10-22T00:03:23.939Z,25.77
2022-10-22T00:05:51.640Z,25.57
2022-10-22T00:08:19.627Z,24.47
2022-10-22T00:10:47.423Z,24.10
2022-10-22T00:13:15.640Z,23.00
2022-10-22T00:15:44.810Z,21.67
2022-10-22T00:18:12.500Z,31.13
2022-10-22T00:20:40.388Z,28.53
2022-10-22T00:23:08.373Z,25.17
2022-10-22T00:25:37.156Z,28.93
2022-10-22T00:28:05.279Z,28.50
2022-10-22T00:30:33.027Z,21.57
2022-10-22T00:33:02.048Z,23.63
2022-10-22T00:35:30.155Z,21.23
2022-10-22T00:37:57.830Z,22.30
2022-10-22T00:40:26.343Z,23.37
2022-10-22T00:42:54.179Z,20.07
2022-10-22T00:45:25.360Z,22.60
2022-10-22T00:48:01.094Z,21.53
2022-10-22T00:50:34.205Z,22.87
2022-10-22T00:53:03.436Z,24.90
2022-10-22T00:55:32.242Z,20.97
2022-10-22T00:58:02.595Z,21.27
2022-10-22T01:00:30.374Z,20.57
2022-10-22T01:02:59.123Z,21.77
2022-10-22T01:05:30.830Z,21.03
2022-10-22T01:07:58.923Z,23.33
2022-10-22T01:10:42.238Z,20.13
2022-10-22T01:13:23.826Z,19.80
2022-10-22T01:16:00.364Z,23.30
2022-10-22T01:18:38.191Z,22.47
2022-10-22T01:21:19.540Z,20.83
2022-10-22T01:24:07.152Z,24.73
2022-10-22T01:26:44.928Z,22.97
2022-10-22T01:29:18.181Z,23.83
2022-10-22T01:31:51.451Z,23.43
2022-10-22T01:34:20.179Z,21.83
2022-10-22T01:36:49.289Z,21.83
2022-10-22T01:39:18.543Z,24.33
2022-10-22T01:41:47.153Z,25.57
2022-10-22T01:44:30.570Z,21.10
2022-10-22T01:47:12.510Z,24.67
2022-10-22T01:49:53.552Z,24.10
2022-10-22T01:52:32.930Z,22.27
2022-10-22T01:55:10.891Z,21.17
2022-10-22T01:57:51.026Z,23.70
2022-10-22T02:00:21.461Z,27.60
2022-10-22T02:02:56.231Z,27.83
2022-10-22T02:05:29.471Z,28.07
2022-10-22T02:08:02.676Z,24.53
2022-10-22T02:10:31.937Z,29.27
2022-10-22T02:13:02.492Z,26.07
2022-10-22T02:15:34.366Z,27.03
2022-10-22T02:18:02.463Z,25.90
2022-10-22T02:20:32.966Z,31.40
2022-10-22T02:23:01.816Z,24.37
2022-10-22T02:25:33.514Z,27.50
2022-10-22T02:28:06.256Z,21.93
2022-10-22T02:30:37.317Z,26.33
2022-10-22T02:33:12.735Z,27.73
2022-10-22T02:35:42.770Z,26.90
2022-10-22T02:38:12.608Z,25.17
2022-10-22T02:40:40.536Z,26.20
2022-10-22T02:43:08.386Z,28.33
2022-10-22T02:45:38.287Z,26.73
2022-10-22T02:48:06.872Z,26.37
2022-10-22T02:50:34.581Z,28.37
2022-10-22T02:53:02.366Z,28.93
2022-10-22T02:55:30.284Z,26.80
2022-10-22T02:57:58.030Z,28.37
2022-10-22T03:00:25.792Z,33.37
2022-10-22T03:02:54.910Z,27.97
2022-10-22T03:05:22.623Z,31.87
2022-10-22T03:07:50.323Z,32.17
2022-10-22T03:10:18.240Z,29.83
2022-10-22T03:12:45.922Z,29.80
2022-10-22T03:15:14.307Z,31.10
2022-10-22T03:17:42.343Z,30.60
2022-10-22T03:20:11.677Z,33.20
2022-10-22T03:22:41.965Z,35.53
2022-10-22T03:25:13.369Z,31.37
2022-10-22T03:27:42.853Z,30.17
2022-10-22T03:30:12.245Z,38.87
2022-10-22T03:32:40.175Z,33.10
2022-10-22T03:35:08.478Z,33.33
2022-10-22T03:37:38.745Z,36.30
2022-10-22T03:40:08.950Z,37.47
2022-10-22T03:42:36.666Z,37.97
2022-10-22T03:45:05.169Z,41.97
2022-10-22T03:47:32.876Z,41.93
2022-10-22T03:50:00.552Z,40.47
2022-10-22T03:52:28.265Z,36.57
2022-10-22T03:54:57.735Z,33.60
2022-10-22T03:57:25.512Z,38.03
2022-10-22T03:59:53.299Z,36.13
2022-10-22T04:02:21.625Z,41.50
2022-10-22T04:04:49.305Z,46.20
2022-10-22T04:07:17.039Z,36.30
2022-10-22T04:09:44.776Z,38.80
2022-10-22T04:12:13.873Z,40.77
2022-10-22T04:14:41.613Z,37.47
2022-10-22T04:17:09.307Z,34.07
2022-10-22T04:19:37.106Z,36.77
2022-10-22T04:22:04.848Z,32.63
2022-10-22T04:24:33.546Z,37.00
2022-10-22T04:27:01.311Z,35.67
2022-10-22T04:29:30.382Z,32.27
2022-10-22T04:31:58.098Z,32.23
2022-10-22T04:34:28.516Z,35.80
2022-10-22T04:36:56.489Z,37.77
2022-10-22T04:39:24.318Z,38.57
2022-10-22T04:41:52.043Z,36.07
2022-10-22T04:44:19.736Z,39.70
2022-10-22T04:46:48.996Z,38.67
2022-10-22T04:49:16.704Z,34.17
2022-10-22T04:51:44.445Z,38.30
2022-10-22T04:54:12.129Z,40.27
2022-10-22T04:56:39.900Z,44.80
2022-10-22T04:59:09.636Z,44.73
2022-10-22T05:01:42.721Z,42.03
2022-10-22T05:04:15.425Z,41.13
2022-10-22T05:06:43.322Z,44.87
2022-10-22T05:09:14.816Z,40.83
2022-10-22T05:11:45.591Z,43.60
2022-10-22T05:14:14.195Z,45.97
2022-10-22T05:16:42.395Z,48.73
2022-10-22T05:19:16.717Z,48.37
2022-10-22T05:21:44.497Z,41.83
2022-10-22T05:24:12.310Z,46.73
2022-10-22T05:26:40.136Z,45.23
2022-10-22T05:29:08.277Z,41.47
2022-10-22T05:31:36.103Z,53.23
2022-10-22T05:34:03.866Z,54.13
2022-10-22T05:36:32.904Z,63.27
2022-10-22T05:39:01.092Z,45.17
2022-10-22T05:41:29.944Z,44.73
2022-10-22T05:43:58.609Z,41.77
2022-10-22T05:46:28.466Z,50.20
2022-10-22T05:48:57.795Z,45.63
2022-10-22T05:51:26.817Z,44.57
2022-10-22T05:53:57.897Z,41.83
2022-10-22T05:56:26.994Z,41.53
2022-10-22T05:58:55.189Z,42.20
2022-10-22T06:01:25.133Z,44.23
2022-10-22T06:03:55.361Z,43.57
2022-10-22T06:06:28.375Z,44.17
2022-10-22T06:09:02.313Z,44.07
2022-10-22T06:11:32.614Z,41.57
2022-10-22T06:14:02.861Z,38.17
2022-10-22T06:16:31.741Z,37.90
2022-10-22T06:19:00.952Z,37.23
2022-10-22T06:21:28.739Z,35.03
2022-10-22T06:23:58.762Z,35.23
2022-10-22T06:26:27.208Z,41.30
2022-10-22T06:28:55.886Z,34.93
2022-10-22T06:31:23.711Z,38.67
2022-10-22T06:33:51.432Z,39.60
2022-10-22T06:36:21.155Z,37.00
2022-10-22T06:38:48.847Z,34.40
2022-10-22T06:41:17.943Z,34.47
2022-10-22T06:43:47.497Z,33.63
2022-10-22T06:46:19.849Z,34.40
2022-10-22T06:48:50.986Z,33.77
2022-10-22T06:51:19.292Z,35.93
2022-10-22T06:53:47.007Z,36.50
2022-10-22T06:56:19.491Z,31.57
2022-10-22T06:58:48.501Z,29.60
2022-10-22T07:01:18.769Z,28.27
2022-10-22T07:03:47.166Z,27.53
2022-10-22T07:06:16.343Z,28.20
2022-10-22T07:08:44.971Z,29.13
2022-10-22T07:11:14.493Z,30.03
2022-10-22T07:13:43.921Z,28.83
2022-10-22T07:16:12.274Z,28.13
2022-10-22T07:18:41.553Z,27.10
2022-10-22T07:21:11.004Z,26.73
2022-10-22T07:23:39.149Z,30.23
2022-10-22T07:26:08.745Z,26.43
2022-10-22T07:28:38.007Z,33.43
2022-10-22T07:31:07.696Z,23.80
2022-10-22T07:33:35.906Z,31.30
2022-10-22T07:36:06.883Z,30.13
2022-10-22T07:38:35.381Z,34.17
2022-10-22T07:41:03.259Z,27.77
2022-10-22T07:43:31.331Z,30.87
2022-10-22T07:45:59.916Z,27.23
2022-10-22T07:48:29.083Z,24.15
2022-10-22T07:50:56.893Z,42.15
2022-10-22T07:53:24.721Z,44.85
2022-10-22T07:55:53.440Z,15.27
2022-10-22T07:58:22.250Z,28.10
2022-10-22T08:00:51.002Z,11.15
2022-10-22T08:03:19.756Z,13.55
2022-10-22T08:05:49.289Z,10.85
2022-10-22T08:08:18.139Z,9.70
2022-10-22T08:10:47.120Z,9.15
2022-10-22T08:13:15.439Z,11.38
2022-10-22T08:18:12.753Z,10.63
2022-10-22T08:20:41.129Z,8.30
2022-10-22T08:23:10.299Z,10.40
2022-10-22T08:25:38.084Z,8.82
2022-10-22T08:28:06.113Z,9.45
2022-10-22T08:30:34.003Z,10.50
2022-10-22T08:33:01.769Z,10.88
2022-10-22T08:35:29.539Z,10.75
2022-10-22T08:37:57.705Z,9.95
2022-10-22T08:40:31.397Z,9.38
2022-10-22T08:43:14.249Z,12.25
2022-10-22T08:45:51.641Z,11.57
2022-10-22T08:48:37.334Z,9.65
2022-10-22T08:51:05.813Z,9.98
2022-10-22T08:53:43.104Z,10.95
2022-10-22T08:56:12.250Z,10.65
2022-10-22T08:58:47.263Z,8.60
2022-10-22T09:01:18.639Z,10.98
2022-10-22T09:03:53.542Z,11.73
2022-10-22T09:06:23.691Z,10.52
2022-10-22T09:08:52.696Z,12.20
2022-10-22T09:11:26.462Z,9.30
2022-10-22T09:13:57.296Z,9.32
2022-10-22T09:16:33.408Z,11.95
2022-10-22T09:19:14.034Z,10.57
2022-10-22T09:21:51.940Z,10.45
2022-10-22T09:24:33.264Z,10.90
2022-10-22T09:27:08.964Z,10.15
2022-10-22T09:29:36.667Z,8.60
2022-10-22T09:32:04.912Z,7.95
2022-10-22T09:34:32.626Z,10.73
2022-10-22T09:37:01.965Z,11.25
2022-10-22T09:39:33.501Z,10.43
2022-10-22T09:42:02.585Z,9.38
2022-10-22T09:44:30.445Z,9.27
2022-10-22T09:46:58.231Z,7.55
2022-10-22T09:49:25.989Z,11.25
2022-10-22T09:51:56.084Z,6.88
2022-10-22T09:54:26.214Z,8.20
2022-10-22T09:56:59.134Z,7.88
2022-10-22T09:59:31.793Z,8.57
2022-10-22T10:02:19.760Z,9.75
2022-10-22T10:04:56.527Z,6.75
2022-10-22T10:07:26.661Z,33.83
2022-10-22T10:09:55.525Z,10.00
2022-10-22T10:12:36.887Z,8.43
2022-10-22T10:15:19.381Z,6.25
2022-10-22T10:17:55.368Z,26.23
2022-10-22T10:20:41.906Z,9.43
2022-10-22T10:23:23.052Z,8.43
2022-10-22T10:25:58.431Z,7.13
2022-10-22T10:28:49.070Z,9.73
2022-10-22T10:31:29.282Z,6.78
2022-10-22T10:34:07.541Z,9.50
2022-10-22T10:36:45.973Z,10.70
2022-10-22T10:39:20.693Z,7.65
2022-10-22T10:41:56.229Z,8.23
2022-10-22T10:44:49.487Z,9.07
2022-10-22T10:47:30.639Z,7.68
2022-10-22T10:50:12.242Z,7.18
2022-10-22T10:52:46.295Z,8.02
2022-10-22T10:55:23.460Z,5.03
2022-10-22T10:57:59.879Z,5.03
2022-10-22T11:00:30.731Z,10.80
2022-10-22T11:03:35.357Z,6.38
2022-10-22T11:06:08.577Z,9.02
2022-10-22T11:08:41.942Z,12.15
2022-10-22T11:13:53.908Z,5.78
2022-10-22T11:16:28.125Z,7.72
2022-10-22T11:19:03.433Z,8.07
2022-10-22T11:21:37.392Z,5.63
2022-10-22T11:24:16.681Z,5.78
2022-10-22T11:26:49.055Z,7.53
2022-10-22T11:29:23.660Z,5.57
2022-10-22T11:31:55.469Z,6.57
2022-10-22T11:34:33.552Z,5.35
2022-10-22T11:37:03.993Z,9.50
2022-10-22T11:39:35.988Z,10.20
2022-10-22T11:42:07.086Z,12.93
2022-10-22T11:44:47.579Z,6.43
2022-10-22T11:47:21.388Z,8.65
2022-10-22T11:50:00.733Z,6.10
2022-10-22T11:52:40.401Z,7.22
2022-10-22T11:55:32.272Z,5.70
2022-10-22T11:58:01.866Z,8.50
2022-10-22T12:00:41.009Z,5.90
2022-10-22T12:03:18.970Z,5.65
2022-10-22T12:05:55.106Z,13.88
2022-10-22T12:08:27.736Z,6.60
2022-10-22T12:11:05.557Z,5.97
2022-10-22T12:13:43.443Z,6.95
2022-10-22T12:16:14.240Z,7.22
2022-10-22T12:18:45.668Z,5.18
2022-10-22T12:21:16.937Z,9.82
2022-10-22T12:23:46.728Z,7.10
2022-10-22T12:26:28.047Z,8.68
2022-10-22T12:28:59.701Z,8.45
2022-10-22T12:31:27.801Z,6.63
2022-10-22T12:33:58.821Z,6.75
2022-10-22T12:36:28.646Z,5.72
2022-10-22T12:38:56.733Z,7.03
2022-10-22T12:41:31.673Z,5.43
2022-10-22T12:44:03.149Z,6.72
2022-10-22T12:46:33.867Z,10.77
2022-10-22T12:49:02.728Z,6.53
2022-10-22T12:54:09.819Z,9.52
2022-10-22T12:56:38.874Z,11.95
2022-10-22T12:59:14.959Z,8.18
2022-10-22T13:01:44.401Z,7.40
2022-10-22T13:04:22.079Z,8.65
2022-10-22T13:06:52.508Z,5.45
2022-10-22T13:09:25.229Z,7.07
2022-10-22T13:11:58.263Z,7.07
2022-10-22T13:14:29.775Z,7.78
2022-10-22T13:17:12.826Z,6.07
2022-10-22T13:19:47.392Z,8.30
2022-10-22T13:22:34.760Z,9.48
2022-10-22T13:25:21.192Z,6.80
2022-10-22T13:27:50.911Z,9.05
2022-10-22T13:30:22.415Z,7.95
2022-10-22T13:32:52.180Z,11.43
2022-10-22T13:35:24.410Z,11.38
2022-10-22T13:37:53.983Z,6.03
2022-10-22T13:40:22.380Z,6.82
2022-10-22T13:42:50.043Z,5.78
2022-10-22T13:45:18.857Z,7.65
2022-10-22T13:47:54.634Z,11.00
2022-10-22T13:50:22.873Z,11.15
2022-10-22T13:52:54.519Z,7.07
2022-10-22T13:55:25.555Z,5.95
2022-10-22T13:57:56.101Z,7.57
2022-10-22T14:00:26.889Z,6.82
2022-10-22T14:02:59.108Z,7.57
2022-10-22T14:05:27.515Z,8.75
2022-10-22T14:07:57.917Z,5.65
2022-10-22T14:10:26.152Z,9.18
2022-10-22T14:12:54.158Z,10.90
2022-10-22T14:15:23.861Z,7.22
2022-10-22T14:17:56.917Z,6.57
2022-10-22T14:20:27.803Z,8.65
2022-10-22T14:22:57.263Z,7.90
2022-10-22T14:25:26.585Z,7.38
2022-10-22T14:27:54.738Z,8.27
2022-10-22T14:30:24.566Z,5.97
2022-10-22T14:32:52.547Z,9.95
2022-10-22T14:35:23.266Z,8.93
2022-10-22T14:37:51.945Z,11.20
2022-10-22T14:40:22.270Z,11.18
2022-10-22T14:42:50.265Z,11.52
2022-10-22T14:45:21.070Z,8.45
2022-10-22T14:47:48.963Z,7.38
2022-10-22T14:50:17.257Z,9.93
2022-10-22T14:52:45.788Z,9.68
2022-10-22T14:55:15.997Z,7.43
2022-10-22T14:57:45.896Z,10.20
2022-10-22T15:00:16.483Z,10.13
2022-10-22T15:02:45.166Z,7.53
2022-10-22T15:05:13.491Z,10.70
2022-10-22T15:07:41.763Z,10.30
2022-10-22T15:10:10.812Z,11.38
2022-10-22T15:12:38.677Z,9.90
2022-10-22T15:15:08.994Z,8.80
2022-10-22T15:17:36.732Z,7.20
2022-10-22T15:20:05.827Z,7.45
2022-10-22T15:22:35.603Z,11.38
2022-10-22T15:25:04.706Z,9.68
2022-10-22T15:27:32.405Z,8.25
2022-10-22T15:30:00.278Z,5.32
2022-10-22T15:32:29.788Z,9.07
2022-10-22T15:34:57.571Z,9.18
2022-10-22T15:37:25.405Z,7.70
2022-10-22T15:39:53.122Z,8.27
2022-10-22T15:42:20.937Z,9.45
2022-10-22T15:44:48.695Z,8.40
2022-10-22T15:47:16.420Z,9.88
2022-10-22T15:49:45.890Z,8.02
2022-10-22T15:52:13.673Z,8.15
2022-10-22T15:54:43.795Z,10.80
2022-10-22T15:57:11.518Z,10.23
2022-10-22T15:59:39.222Z,10.02
2022-10-22T16:02:08.111Z,9.43
2022-10-22T16:04:35.843Z,11.20
2022-10-22T16:07:05.023Z,9.77
2022-10-22T16:09:32.747Z,11.35
2022-10-22T16:12:00.616Z,8.23
2022-10-22T16:14:28.891Z,8.88
2022-10-22T16:16:57.261Z,9.95
2022-10-22T16:19:27.173Z,11.77
2022-10-22T16:21:56.777Z,9.25
2022-10-22T16:24:25.970Z,12.43
2022-10-22T16:26:53.903Z,17.98
2022-10-22T16:29:21.729Z,10.98
2022-10-22T16:31:49.615Z,12.48
2022-10-22T16:34:17.436Z,11.23
2022-10-22T16:36:45.267Z,14.05
2022-10-22T16:39:13.085Z,12.25
2022-10-22T16:41:42.238Z,11.45
2022-10-22T16:44:12.334Z,12.05
2022-10-22T16:46:40.097Z,11.75
2022-10-22T16:49:08.446Z,17.63
2022-10-22T16:51:36.610Z,12.07
2022-10-22T16:54:06.936Z,9.90
2022-10-22T16:56:37.609Z,11.43
2022-10-22T16:59:07.820Z,13.13
2022-10-22T17:01:40.326Z,13.55
2022-10-22T17:04:09.179Z,10.73
2022-10-22T17:06:37.229Z,16.00
2022-10-22T17:09:05.691Z,9.20
2022-10-22T17:11:36.356Z,9.87
2022-10-22T17:14:07.752Z,17.40
2022-10-22T17:16:35.660Z,16.67
2022-10-22T17:19:05.205Z,13.68
2022-10-22T17:21:33.989Z,14.10
2022-10-22T17:24:01.858Z,12.60
2022-10-22T17:26:30.460Z,10.23
2022-10-22T17:28:58.755Z,12.05
2022-10-22T17:31:29.837Z,13.70
2022-10-22T17:33:59.866Z,12.38
2022-10-22T17:36:33.342Z,8.98
2022-10-22T17:39:06.538Z,7.05
2022-10-22T17:41:37.271Z,11.88
2022-10-22T17:44:09.132Z,17.40
2022-10-22T17:46:39.341Z,14.17
2022-10-22T17:49:13.370Z,13.17
2022-10-22T17:51:41.689Z,10.53
2022-10-22T17:54:10.275Z,12.57
2022-10-22T17:56:40.289Z,13.83
2022-10-22T17:59:08.709Z,11.03
2022-10-22T18:01:43.483Z,11.67
2022-10-22T18:04:14.246Z,10.03
2022-10-22T18:06:42.238Z,11.52
2022-10-22T18:09:17.215Z,11.00
2022-10-22T18:11:46.852Z,11.87
2022-10-22T18:14:14.844Z,9.95
2022-10-22T18:16:44.103Z,11.07
2022-10-22T18:19:13.530Z,9.07
2022-10-22T18:21:41.626Z,10.77
2022-10-22T18:24:10.794Z,12.50
2022-10-22T18:26:38.962Z,9.13
2022-10-22T18:29:06.743Z,10.33
2022-10-22T18:31:34.439Z,12.03
2022-10-22T18:34:03.557Z,12.07
2022-10-22T18:36:31.476Z,12.97
2022-10-22T18:39:01.120Z,11.43
2022-10-22T18:41:30.325Z,11.73
2022-10-22T18:43:59.833Z,15.20
2022-10-22T18:46:28.761Z,11.40
2022-10-22T18:48:56.922Z,10.10
2022-10-22T18:51:28.388Z,11.73
2022-10-22T18:54:11.279Z,12.88
2022-10-22T18:56:44.502Z,11.10
2022-10-22T18:59:16.259Z,8.97
2022-10-22T19:01:44.019Z,9.27
2022-10-22T19:04:13.164Z,11.30
2022-10-22T19:06:45.734Z,9.27
2022-10-22T19:09:14.786Z,13.93
2022-10-22T19:11:43.872Z,12.37
2022-10-22T19:14:11.715Z,13.93
2022-10-22T19:16:39.664Z,7.50
2022-10-22T19:19:08.580Z,12.83
2022-10-22T19:21:37.686Z,10.18
2022-10-22T19:24:07.965Z,16.87
2022-10-22T19:26:36.188Z,9.95
2022-10-22T19:29:04.928Z,13.87
2022-10-22T19:31:33.143Z,11.60
2022-10-22T19:34:02.179Z,11.73
2022-10-22T19:36:31.220Z,10.80
2022-10-22T19:38:59.793Z,13.30
2022-10-22T19:41:31.490Z,10.97
2022-10-22T19:44:00.446Z,8.65
2022-10-22T19:46:30.273Z,14.90
2022-10-22T19:48:58.102Z,12.90
2022-10-22T19:51:27.892Z,15.73
2022-10-22T19:53:59.636Z,13.83
2022-10-22T19:56:29.318Z,12.40
2022-10-22T19:58:57.051Z,13.80
2022-10-22T20:01:25.137Z,13.03
2022-10-22T20:03:53.566Z,15.20
2022-10-22T20:06:21.969Z,15.57
2022-10-22T20:08:53.766Z,16.67
2022-10-22T20:11:25.867Z,17.63
2022-10-22T20:13:55.908Z,14.87
2022-10-22T20:16:26.048Z,12.47
2022-10-22T20:18:54.203Z,12.07
2022-10-22T20:21:22.668Z,10.80
2022-10-22T20:23:54.357Z,16.77
2022-10-22T20:26:23.897Z,12.27
2022-10-22T20:28:51.904Z,13.90
2022-10-22T20:31:23.011Z,15.00
2022-10-22T20:33:51.463Z,12.10
2022-10-22T20:36:21.828Z,9.37
2022-10-22T20:38:50.165Z,15.80
2022-10-22T20:41:19.506Z,13.03
2022-10-22T20:43:47.810Z,12.33
2022-10-22T20:46:19.525Z,18.60
2022-10-22T20:48:48.953Z,11.47
2022-10-22T20:51:16.790Z,16.03
2022-10-22T20:53:44.540Z,12.53
2022-10-22T20:56:13.507Z,11.70
2022-10-22T20:58:46.493Z,12.73
2022-10-22T21:01:20.430Z,14.77
2022-10-22T21:03:50.343Z,13.03
2022-10-22T21:06:20.956Z,14.97
2022-10-22T21:08:49.010Z,16.30
2022-10-22T21:11:16.888Z,14.27
2022-10-22T21:13:45.010Z,13.93
2022-10-22T21:16:14.618Z,15.50
2022-10-22T21:18:42.454Z,18.20
2022-10-22T21:21:11.701Z,14.00
2022-10-22T21:23:40.278Z,15.33
2022-10-22T21:26:08.166Z,16.27
2022-10-22T21:28:37.301Z,14.20
2022-10-22T21:31:06.742Z,19.47
2022-10-22T21:33:37.212Z,20.80
2022-10-22T21:36:06.338Z,14.40
2022-10-22T21:38:35.914Z,20.13
2022-10-22T21:41:05.995Z,22.93
2022-10-22T21:43:33.885Z,19.27
2022-10-22T21:46:07.954Z,20.60
2022-10-22T21:48:36.660Z,23.23
2022-10-22T21:51:08.518Z,20.33
2022-10-22T21:53:38.319Z,21.03
2022-10-22T21:56:07.250Z,26.57
2022-10-22T21:58:35.940Z,21.43
2022-10-22T22:01:04.572Z,21.30
2022-10-22T22:03:32.341Z,19.70
2022-10-22T22:06:01.136Z,24.20
2022-10-22T22:08:29.449Z,25.93
2022-10-22T22:11:04.211Z,25.17
2022-10-22T22:13:32.486Z,22.93
2022-10-22T22:16:01.546Z,25.03
2022-10-22T22:18:30.299Z,27.37
2022-10-22T22:20:58.324Z,23.20
2022-10-22T22:23:26.656Z,21.97
2022-10-22T22:25:54.354Z,19.80
2022-10-22T22:28:23.446Z,26.50
2022-10-22T22:30:51.227Z,23.20
2022-10-22T22:33:19.090Z,21.67
2022-10-22T22:35:46.808Z,24.13
2022-10-22T22:38:14.705Z,21.93
2022-10-22T22:40:43.232Z,24.33
2022-10-22T22:43:12.093Z,25.77
2022-10-22T22:45:41.144Z,22.20
2022-10-22T22:48:09.021Z,18.57
2022-10-22T22:50:37.157Z,23.77
2022-10-22T22:53:04.923Z,20.43
2022-10-22T22:55:32.893Z,22.10
2022-10-22T22:58:00.631Z,26.50
2022-10-22T23:00:28.470Z,26.70
2022-10-22T23:02:58.025Z,20.63
2022-10-22T23:05:25.832Z,23.43
2022-10-22T23:07:54.109Z,23.77
2022-10-22T23:10:21.941Z,25.67
2022-10-22T23:12:50.606Z,26.17
2022-10-22T23:15:18.500Z,30.33
2022-10-22T23:17:46.241Z,33.67
2022-10-22T23:20:15.366Z,27.70
2022-10-22T23:22:43.373Z,26.20
2022-10-22T23:25:11.320Z,24.50
2022-10-22T23:27:39.034Z,26.23
2022-10-22T23:30:08.054Z,28.80
2022-10-22T23:32:35.694Z,27.83
2022-10-22T23:35:03.377Z,27.70
2022-10-22T23:37:32.608Z,30.37
2022-10-22T23:40:00.322Z,32.27
2022-10-22T23:42:28.045Z,29.17
2022-10-22T23:44:55.895Z,20.77
2022-10-22T23:47:23.616Z,30.13
2022-10-22T23:49:51.294Z,24.17
2022-10-22T23:52:19.022Z,27.97
2022-10-22T23:54:49.603Z,33.33
2022-10-22T23:57:17.307Z,29.97
2022-10-22T23:59:45.071Z,27.23
